createdAt,value
2018-03-29T00:00:33.485Z,4.30
2018-03-29T00:03:00.998Z,4.20
2018-03-29T00:05:29.309Z,4.20
2018-03-29T00:07:56.880Z,4.10
2018-03-29T00:10:25.163Z,4.10
2018-03-29T00:12:52.677Z,4.10
2018-03-29T00:15:20.223Z,4.10
2018-03-29T00:17:47.749Z,4.10
2018-03-29T00:20:15.308Z,4.10
2018-03-29T00:22:42.825Z,4.10
2018-03-29T00:25:11.133Z,4.00
2018-03-29T00:27:38.645Z,4.00
2018-03-29T00:30:06.183Z,4.00
2018-03-29T00:32:33.706Z,4.00
2018-03-29T00:35:01.279Z,4.00
2018-03-29T00:37:28.797Z,3.90
2018-03-29T00:39:57.136Z,3.90
2018-03-29T00:42:24.658Z,3.80
2018-03-29T00:44:52.177Z,3.90
2018-03-29T00:47:19.725Z,3.90
2018-03-29T00:49:47.245Z,3.90
2018-03-29T00:52:14.790Z,3.90
2018-03-29T00:54:42.304Z,3.90
2018-03-29T00:57:09.847Z,3.80
2018-03-29T00:59:37.366Z,3.80
2018-03-29T01:02:05.678Z,3.80
2018-03-29T01:04:33.201Z,3.70
2018-03-29T01:07:00.741Z,3.80
2018-03-29T01:09:28.262Z,3.80
2018-03-29T01:11:55.807Z,3.80
2018-03-29T01:14:23.318Z,3.90
2018-03-29T01:16:50.862Z,3.80
2018-03-29T01:19:18.381Z,3.80
2018-03-29T01:21:45.920Z,3.80
2018-03-29T01:24:14.194Z,3.70
2018-03-29T01:26:42.506Z,3.70
2018-03-29T01:29:10.022Z,3.70
2018-03-29T01:31:38.342Z,3.70
2018-03-29T01:34:05.861Z,3.70
2018-03-29T01:36:34.151Z,3.70
2018-03-29T01:39:02.457Z,3.70
2018-03-29T01:41:29.981Z,3.70
2018-03-29T01:43:58.292Z,3.70
2018-03-29T01:46:25.813Z,3.70
2018-03-29T01:48:54.114Z,3.80
2018-03-29T01:51:21.629Z,3.70
2018-03-29T01:53:49.166Z,3.70
2018-03-29T01:56:16.694Z,3.80
2018-03-29T01:58:44.237Z,3.80
2018-03-29T02:01:12.518Z,3.80
2018-03-29T02:03:40.826Z,3.80
2018-03-29T02:06:08.342Z,3.70
2018-03-29T02:08:36.653Z,3.80
2018-03-29T02:11:04.178Z,3.70
2018-03-29T02:13:31.723Z,3.80
2018-03-29T02:15:59.245Z,3.90
2018-03-29T02:18:26.802Z,3.80
2018-03-29T02:20:54.322Z,3.80
2018-03-29T02:23:22.625Z,3.80
2018-03-29T02:25:50.146Z,3.80
2018-03-29T02:28:17.690Z,3.80
2018-03-29T02:30:45.210Z,3.90
2018-03-29T02:33:12.760Z,3.90
2018-03-29T02:35:40.285Z,3.90
2018-03-29T02:38:07.793Z,3.90
2018-03-29T02:40:35.339Z,3.90
2018-03-29T02:43:02.865Z,3.80
2018-03-29T02:45:30.409Z,3.80
2018-03-29T02:47:57.940Z,3.80
2018-03-29T02:50:25.486Z,3.80
2018-03-29T02:52:53.009Z,3.80
2018-03-29T02:55:20.545Z,3.70
2018-03-29T02:57:48.067Z,3.70
2018-03-29T03:00:15.616Z,3.70
2018-03-29T03:02:43.145Z,3.70
2018-03-29T03:05:10.695Z,3.70
2018-03-29T03:07:38.214Z,3.70
2018-03-29T03:10:05.758Z,3.70
2018-03-29T03:12:33.276Z,3.70
2018-03-29T03:15:00.822Z,3.70
2018-03-29T03:17:28.344Z,3.70
2018-03-29T03:19:55.908Z,3.80
2018-03-29T03:22:23.425Z,3.80
2018-03-29T03:24:50.967Z,3.80
2018-03-29T03:27:18.489Z,3.90
2018-03-29T03:29:46.038Z,3.90
2018-03-29T03:32:13.563Z,3.90
2018-03-29T03:34:41.121Z,3.90
2018-03-29T03:37:08.649Z,3.90
2018-03-29T03:39:36.185Z,4.00
2018-03-29T03:42:03.719Z,4.00
2018-03-29T03:44:32.002Z,4.00
2018-03-29T03:47:00.310Z,4.00
2018-03-29T03:49:27.831Z,4.00
2018-03-29T03:51:56.143Z,4.00
2018-03-29T03:54:23.661Z,4.00
2018-03-29T03:56:51.211Z,4.00
2018-03-29T03:59:18.729Z,4.00
2018-03-29T04:01:46.270Z,4.00
2018-03-29T04:04:14.610Z,3.90
2018-03-29T04:06:42.142Z,3.90
2018-03-29T04:09:09.654Z,3.90
2018-03-29T04:11:38.027Z,3.80
2018-03-29T04:14:06.332Z,3.80
2018-03-29T04:16:34.633Z,3.80
2018-03-29T04:19:02.145Z,3.70
2018-03-29T04:21:30.453Z,3.70
2018-03-29T04:23:57.975Z,3.70
2018-03-29T04:26:25.517Z,3.70
2018-03-29T04:28:53.033Z,3.70
2018-03-29T04:31:20.579Z,3.70
2018-03-29T04:33:48.858Z,3.70
2018-03-29T04:36:16.406Z,3.60
2018-03-29T04:38:44.753Z,3.70
2018-03-29T04:41:12.298Z,3.70
2018-03-29T04:43:39.820Z,3.70
2018-03-29T04:46:07.351Z,3.70
2018-03-29T04:48:34.893Z,3.70
2018-03-29T04:51:02.413Z,3.80
2018-03-29T04:53:29.961Z,3.80
2018-03-29T04:55:57.478Z,3.80
2018-03-29T04:58:25.022Z,3.80
2018-03-29T05:00:52.551Z,3.70
2018-03-29T05:03:20.111Z,3.70
2018-03-29T05:05:47.637Z,3.70
2018-03-29T05:08:15.957Z,3.70
2018-03-29T05:10:43.486Z,3.70
2018-03-29T05:13:11.798Z,3.70
2018-03-29T05:15:39.334Z,3.70
2018-03-29T05:18:06.884Z,3.70
2018-03-29T05:20:35.169Z,3.80
2018-03-29T05:23:02.718Z,3.70
2018-03-29T05:25:34.953Z,3.80
2018-03-29T05:28:02.493Z,3.70
2018-03-29T05:30:30.018Z,3.80
2018-03-29T05:32:57.561Z,3.80
2018-03-29T05:35:25.841Z,3.80
2018-03-29T05:37:54.145Z,3.90
2018-03-29T05:40:21.662Z,3.80
2018-03-29T05:42:49.209Z,3.90
2018-03-29T05:45:16.755Z,3.90
2018-03-29T05:47:44.271Z,3.90
2018-03-29T05:50:12.617Z,4.00
2018-03-29T05:52:40.131Z,3.90
2018-03-29T05:55:07.678Z,4.00
2018-03-29T05:57:35.210Z,4.00
2018-03-29T06:00:03.526Z,4.00
2018-03-29T06:02:31.049Z,4.00
2018-03-29T06:04:59.363Z,4.00
2018-03-29T06:07:26.885Z,4.00
2018-03-29T06:09:55.198Z,4.10
2018-03-29T06:12:22.721Z,4.00
2018-03-29T06:14:50.265Z,4.10
2018-03-29T06:17:23.595Z,4.10
2018-03-29T06:19:51.901Z,4.10
2018-03-29T06:22:19.425Z,4.10
2018-03-29T06:24:47.737Z,4.20
2018-03-29T06:27:15.249Z,4.20
2018-03-29T06:29:42.785Z,4.20
2018-03-29T06:32:10.309Z,4.20
2018-03-29T06:34:37.849Z,4.30
2018-03-29T06:37:06.142Z,4.30
2018-03-29T06:39:33.681Z,4.30
2018-03-29T06:42:01.970Z,4.40
2018-03-29T06:44:30.249Z,4.40
2018-03-29T06:46:57.856Z,4.30
2018-03-29T06:49:25.346Z,4.40
2018-03-29T06:51:52.893Z,4.40
2018-03-29T06:54:20.415Z,4.50
2018-03-29T06:56:47.959Z,4.50
2018-03-29T06:59:15.482Z,4.50
2018-03-29T07:01:43.025Z,4.50
2018-03-29T07:04:10.545Z,4.60
2018-03-29T07:06:38.089Z,4.60
2018-03-29T07:09:06.371Z,4.70
2018-03-29T07:11:33.925Z,4.60
2018-03-29T07:14:02.213Z,4.70
2018-03-29T07:16:29.757Z,4.70
2018-03-29T07:18:58.049Z,4.80
2018-03-29T07:21:25.594Z,4.80
2018-03-29T07:23:53.882Z,4.80
2018-03-29T07:26:21.430Z,4.80
2018-03-29T07:28:49.722Z,4.80
2018-03-29T07:31:17.269Z,4.80
2018-03-29T07:33:45.553Z,4.90
2018-03-29T07:36:13.870Z,4.90
2018-03-29T07:38:41.389Z,4.80
2018-03-29T07:41:09.671Z,5.00
2018-03-29T07:43:37.977Z,5.00
2018-03-29T07:46:05.497Z,4.90
2018-03-29T07:48:33.806Z,5.00
2018-03-29T07:51:01.329Z,5.00
2018-03-29T07:53:28.869Z,5.10
2018-03-29T07:55:57.145Z,5.20
2018-03-29T07:58:24.686Z,5.20
2018-03-29T08:00:52.211Z,5.20
2018-03-29T08:03:19.760Z,5.30
2018-03-29T08:05:48.046Z,5.30
2018-03-29T08:08:16.357Z,5.30
2018-03-29T08:10:43.874Z,5.30
2018-03-29T08:13:12.182Z,5.30
2018-03-29T08:15:39.710Z,5.30
2018-03-29T08:18:08.023Z,5.40
2018-03-29T08:20:35.538Z,5.40
2018-03-29T08:23:03.082Z,5.50
2018-03-29T08:25:30.605Z,5.50
2018-03-29T08:27:58.142Z,5.60
2018-03-29T08:30:25.662Z,5.60
2018-03-29T08:32:53.212Z,5.70
2018-03-29T08:35:20.734Z,5.80
2018-03-29T08:37:48.274Z,5.90
2018-03-29T08:40:16.614Z,5.80
2018-03-29T08:42:44.179Z,5.80
2018-03-29T08:45:11.744Z,5.90
2018-03-29T08:47:39.267Z,5.80
2018-03-29T08:50:06.805Z,5.80
2018-03-29T08:52:34.330Z,5.80
2018-03-29T08:55:01.882Z,5.70
2018-03-29T08:57:29.400Z,5.70
2018-03-29T08:59:56.947Z,5.70
2018-03-29T09:02:24.475Z,5.70
2018-03-29T09:04:52.013Z,5.70
2018-03-29T09:07:19.532Z,5.80
2018-03-29T09:09:47.087Z,5.80
2018-03-29T09:12:14.609Z,5.80
2018-03-29T09:14:42.163Z,5.90
2018-03-29T09:17:09.687Z,5.80
2018-03-29T09:19:37.238Z,5.80
2018-03-29T09:22:04.766Z,5.90
2018-03-29T09:24:33.086Z,5.90
2018-03-29T09:27:00.613Z,5.90
2018-03-29T09:29:28.927Z,5.90
2018-03-29T09:31:56.509Z,5.90
2018-03-29T09:34:24.062Z,5.90
2018-03-29T09:36:51.594Z,5.90
2018-03-29T09:39:19.158Z,5.90
2018-03-29T09:41:46.680Z,5.90
2018-03-29T09:44:14.982Z,6.00
2018-03-29T09:46:42.538Z,5.90
2018-03-29T09:49:10.069Z,6.00
2018-03-29T09:51:37.618Z,6.00
2018-03-29T09:54:05.142Z,6.00
2018-03-29T09:56:32.694Z,6.10
2018-03-29T09:59:00.221Z,6.20
2018-03-29T10:01:28.535Z,6.50
2018-03-29T10:04:01.661Z,6.40
2018-03-29T10:06:29.210Z,6.50
2018-03-29T10:08:56.729Z,6.50
2018-03-29T10:11:24.273Z,6.60
2018-03-29T10:13:52.565Z,6.70
2018-03-29T10:16:20.115Z,6.70
2018-03-29T10:18:48.400Z,6.60
2018-03-29T10:21:15.947Z,6.60
2018-03-29T10:23:44.252Z,6.60
2018-03-29T10:26:11.802Z,6.60
2018-03-29T10:28:39.336Z,6.60
2018-03-29T10:31:07.659Z,6.50
2018-03-29T10:33:35.177Z,6.50
2018-03-29T10:36:03.493Z,6.60
2018-03-29T10:38:31.014Z,6.50
2018-03-29T10:40:59.313Z,6.60
2018-03-29T10:43:26.868Z,6.50
2018-03-29T10:45:55.161Z,6.60
2018-03-29T10:48:22.709Z,6.50
2018-03-29T10:50:50.996Z,6.70
2018-03-29T10:53:18.550Z,6.70
2018-03-29T10:55:46.073Z,6.80
2018-03-29T10:58:13.624Z,7.00
2018-03-29T11:00:41.157Z,7.10
2018-03-29T11:03:08.701Z,7.20
2018-03-29T11:05:36.227Z,7.20
2018-03-29T11:08:03.777Z,7.20
2018-03-29T11:10:31.305Z,7.20
2018-03-29T11:12:58.862Z,7.20
2018-03-29T11:15:26.394Z,7.10
2018-03-29T11:17:53.947Z,7.10
2018-03-29T11:20:21.479Z,7.10
2018-03-29T11:22:49.034Z,7.10
2018-03-29T11:25:16.554Z,7.10
2018-03-29T11:27:44.108Z,7.00
2018-03-29T11:30:11.673Z,7.00
2018-03-29T11:32:39.218Z,7.10
2018-03-29T11:35:06.738Z,7.10
2018-03-29T11:37:34.294Z,7.20
2018-03-29T11:40:01.822Z,7.40
2018-03-29T11:42:29.350Z,7.60
2018-03-29T11:44:56.889Z,7.90
2018-03-29T11:47:25.178Z,8.50
2018-03-29T11:49:53.494Z,8.60
2018-03-29T11:52:21.030Z,8.60
2018-03-29T11:54:48.571Z,8.70
2018-03-29T11:57:16.865Z,8.70
2018-03-29T11:59:44.418Z,8.70
2018-03-29T12:02:11.951Z,8.70
2018-03-29T12:04:39.497Z,8.60
2018-03-29T12:07:07.028Z,8.50
2018-03-29T12:09:34.573Z,8.40
2018-03-29T12:12:02.094Z,8.30
2018-03-29T12:14:29.636Z,8.10
2018-03-29T12:16:57.154Z,7.90
2018-03-29T12:19:24.707Z,7.70
2018-03-29T12:21:52.239Z,7.50
2018-03-29T12:24:19.786Z,7.40
2018-03-29T12:26:47.315Z,7.30
2018-03-29T12:29:14.858Z,7.30
2018-03-29T12:31:42.375Z,7.30
2018-03-29T12:34:09.921Z,7.30
2018-03-29T12:36:37.460Z,7.20
2018-03-29T12:39:05.775Z,7.10
2018-03-29T12:41:34.066Z,7.10
2018-03-29T12:44:02.374Z,7.30
2018-03-29T12:46:29.892Z,7.20
2018-03-29T12:48:57.454Z,7.40
2018-03-29T12:51:24.975Z,7.60
2018-03-29T12:53:52.509Z,7.80
2018-03-29T12:56:31.950Z,7.90
2018-03-29T12:58:59.476Z,7.90
2018-03-29T13:01:27.799Z,8.00
2018-03-29T13:03:55.331Z,8.00
2018-03-29T13:06:22.911Z,8.20
2018-03-29T13:08:50.497Z,8.40
2018-03-29T13:11:18.018Z,8.50
2018-03-29T13:13:45.542Z,8.80
2018-03-29T13:16:13.081Z,9.10
2018-03-29T13:18:40.650Z,9.30
2018-03-29T13:21:08.225Z,9.50
2018-03-29T13:23:35.749Z,9.50
2018-03-29T13:26:03.299Z,9.40
2018-03-29T13:28:30.828Z,9.30
2018-03-29T13:30:59.149Z,9.10
2018-03-29T13:33:26.673Z,9.10
2018-03-29T13:35:54.993Z,8.90
2018-03-29T13:38:22.522Z,8.80
2018-03-29T13:40:50.078Z,8.90
2018-03-29T13:43:17.600Z,8.90
2018-03-29T13:45:45.123Z,8.90
2018-03-29T13:48:12.668Z,8.80
2018-03-29T13:50:40.190Z,8.60
2018-03-29T13:53:07.733Z,8.40
2018-03-29T13:55:35.259Z,8.40
2018-03-29T13:58:02.812Z,8.40
2018-03-29T14:00:30.341Z,8.30
2018-03-29T14:02:57.888Z,8.30
2018-03-29T14:05:25.405Z,8.40
2018-03-29T14:07:52.953Z,8.40
2018-03-29T14:10:20.477Z,8.50
2018-03-29T14:12:48.022Z,8.50
2018-03-29T14:15:15.545Z,8.60
2018-03-29T14:17:43.094Z,8.80
2018-03-29T14:20:10.613Z,8.90
2018-03-29T14:22:38.197Z,9.20
2018-03-29T14:25:05.726Z,9.50
2018-03-29T14:27:33.265Z,9.80
2018-03-29T14:30:00.854Z,9.70
2018-03-29T14:32:28.365Z,9.70
2018-03-29T14:34:55.885Z,9.60
2018-03-29T14:37:23.451Z,9.50
2018-03-29T14:39:51.738Z,9.10
2018-03-29T14:42:20.117Z,9.00
2018-03-29T14:44:48.396Z,8.60
2018-03-29T14:47:15.904Z,8.60
2018-03-29T14:49:43.449Z,8.40
2018-03-29T14:52:10.970Z,8.20
2018-03-29T14:54:39.281Z,7.80
2018-03-29T14:57:06.797Z,7.70
2018-03-29T14:59:35.103Z,7.60
2018-03-29T15:02:02.626Z,7.60
2018-03-29T15:04:30.942Z,7.40
2018-03-29T15:06:58.457Z,7.40
2018-03-29T15:09:26.007Z,7.30
2018-03-29T15:11:53.550Z,7.20
2018-03-29T15:14:21.106Z,7.10
2018-03-29T15:16:48.628Z,7.00
2018-03-29T15:19:16.182Z,7.10
2018-03-29T15:21:44.527Z,8.00
2018-03-29T15:24:12.038Z,8.00
2018-03-29T15:26:39.553Z,8.60
2018-03-29T15:29:07.119Z,9.20
2018-03-29T15:31:34.657Z,9.60
2018-03-29T15:34:02.211Z,10.20
2018-03-29T15:36:29.737Z,10.30
2018-03-29T15:38:57.297Z,10.40
2018-03-29T15:41:24.817Z,10.30
2018-03-29T15:43:52.382Z,10.60
2018-03-29T15:46:19.913Z,11.00
2018-03-29T15:48:47.446Z,11.50
2018-03-29T15:51:14.999Z,11.70
2018-03-29T15:53:42.526Z,11.80
2018-03-29T15:56:10.846Z,11.30
2018-03-29T15:58:38.371Z,11.20
2018-03-29T16:01:06.690Z,11.20
2018-03-29T16:03:34.226Z,11.10
2018-03-29T16:06:01.777Z,11.20
2018-03-29T16:08:29.298Z,11.40
2018-03-29T16:10:56.853Z,11.50
2018-03-29T16:13:24.383Z,11.60
2018-03-29T16:15:51.934Z,11.90
2018-03-29T16:18:19.462Z,12.20
2018-03-29T16:20:47.779Z,12.20
2018-03-29T16:23:15.309Z,12.10
2018-03-29T16:25:43.626Z,11.50
2018-03-29T16:28:11.157Z,11.50
2018-03-29T16:30:38.701Z,11.00
2018-03-29T16:33:06.994Z,10.30
2018-03-29T16:35:34.550Z,10.20
2018-03-29T16:38:02.842Z,9.60
2018-03-29T16:40:30.385Z,9.60
2018-03-29T16:42:58.669Z,9.40
2018-03-29T16:45:26.976Z,9.40
2018-03-29T16:47:54.494Z,9.30
2018-03-29T16:50:22.801Z,9.10
2018-03-29T16:52:50.334Z,9.00
2018-03-29T16:55:18.630Z,9.10
2018-03-29T16:57:46.181Z,9.00
2018-03-29T17:00:14.461Z,8.90
2018-03-29T17:02:42.773Z,8.90
2018-03-29T17:05:10.350Z,8.80
2018-03-29T17:07:37.948Z,8.80
2018-03-29T17:10:06.222Z,8.50
2018-03-29T17:12:34.534Z,8.50
2018-03-29T17:15:02.059Z,8.40
2018-03-29T17:17:29.600Z,8.40
2018-03-29T17:19:57.110Z,8.40
2018-03-29T17:22:24.651Z,8.40
2018-03-29T17:24:52.938Z,8.30
2018-03-29T17:27:21.246Z,8.30
2018-03-29T17:29:48.767Z,8.20
2018-03-29T17:32:16.310Z,8.30
2018-03-29T17:34:43.829Z,8.20
2018-03-29T17:37:11.379Z,8.20
2018-03-29T17:39:38.897Z,8.10
2018-03-29T17:42:06.454Z,8.10
2018-03-29T17:44:33.983Z,8.10
2018-03-29T17:47:01.524Z,8.20
2018-03-29T17:49:29.045Z,8.00
2018-03-29T17:51:57.362Z,7.90
2018-03-29T17:54:24.881Z,7.80
2018-03-29T17:56:53.193Z,7.70
2018-03-29T17:59:20.715Z,7.60
2018-03-29T18:01:49.013Z,7.50
2018-03-29T18:04:16.560Z,7.40
2018-03-29T18:06:44.846Z,7.30
2018-03-29T18:09:12.401Z,7.20
2018-03-29T18:11:40.689Z,7.20
2018-03-29T18:14:08.239Z,7.20
2018-03-29T18:16:36.526Z,7.10
2018-03-29T18:19:04.080Z,7.00
2018-03-29T18:21:32.362Z,6.90
2018-03-29T18:23:59.913Z,6.90
2018-03-29T18:26:27.433Z,6.90
2018-03-29T18:28:54.986Z,6.90
2018-03-29T18:31:22.514Z,6.90
2018-03-29T18:33:50.076Z,6.80
2018-03-29T18:36:17.597Z,6.80
2018-03-29T18:38:45.146Z,6.70
2018-03-29T18:41:12.671Z,6.60
2018-03-29T18:43:40.233Z,6.50
2018-03-29T18:46:07.757Z,6.50
2018-03-29T18:48:36.074Z,6.50
2018-03-29T18:51:03.603Z,6.40
2018-03-29T18:53:31.905Z,6.50
2018-03-29T18:55:59.421Z,6.50
2018-03-29T18:58:27.750Z,6.50
2018-03-29T19:00:55.264Z,6.50
2018-03-29T19:03:23.555Z,6.40
2018-03-29T19:05:51.110Z,6.40
2018-03-29T19:08:19.400Z,6.40
2018-03-29T19:10:46.950Z,6.40
2018-03-29T19:13:15.251Z,6.40
2018-03-29T19:15:42.801Z,6.40
2018-03-29T19:18:10.335Z,6.40
2018-03-29T19:20:38.677Z,6.40
2018-03-29T19:23:06.203Z,6.30
2018-03-29T19:25:33.758Z,6.30
2018-03-29T19:28:01.283Z,6.30
2018-03-29T19:30:28.825Z,6.30
2018-03-29T19:32:57.113Z,6.20
2018-03-29T19:35:24.655Z,6.20
2018-03-29T19:37:52.176Z,6.10
2018-03-29T19:40:19.720Z,6.00
2018-03-29T19:42:48.018Z,5.90
2018-03-29T19:45:15.569Z,5.80
2018-03-29T19:47:43.094Z,5.80
2018-03-29T19:50:10.621Z,5.80
2018-03-29T19:52:38.224Z,5.80
2018-03-29T19:55:05.706Z,5.80
2018-03-29T19:57:33.257Z,5.80
2018-03-29T20:00:01.546Z,5.80
2018-03-29T20:02:29.105Z,5.70
2018-03-29T20:04:57.385Z,5.70
2018-03-29T20:07:24.931Z,5.60
2018-03-29T20:09:53.226Z,5.60
2018-03-29T20:12:20.774Z,5.50
2018-03-29T20:14:48.301Z,5.50
2018-03-29T20:17:15.849Z,5.50
2018-03-29T20:19:43.370Z,5.40
2018-03-29T20:22:10.929Z,5.40
2018-03-29T20:24:38.461Z,5.40
2018-03-29T20:27:06.009Z,5.40
2018-03-29T20:29:33.537Z,5.30
2018-03-29T20:32:01.081Z,5.30
2018-03-29T20:34:28.610Z,5.20
2018-03-29T20:36:56.950Z,5.20
2018-03-29T20:39:24.465Z,5.10
2018-03-29T20:41:52.783Z,5.10
2018-03-29T20:44:20.298Z,5.00
2018-03-29T20:46:48.621Z,5.00
2018-03-29T20:49:16.158Z,4.90
2018-03-29T20:51:43.710Z,5.00
2018-03-29T20:54:11.246Z,4.90
2018-03-29T20:56:39.534Z,4.80
2018-03-29T20:59:07.845Z,4.70
2018-03-29T21:01:35.366Z,4.70
2018-03-29T21:04:02.918Z,4.70
2018-03-29T21:06:31.209Z,4.70
2018-03-29T21:08:59.526Z,4.60
2018-03-29T21:11:27.045Z,4.60
2018-03-29T21:13:55.354Z,4.60
2018-03-29T21:16:22.888Z,4.50
2018-03-29T21:18:51.208Z,4.50
2018-03-29T21:21:18.738Z,4.50
2018-03-29T21:23:46.287Z,4.50
2018-03-29T21:26:14.577Z,4.40
2018-03-29T21:28:42.130Z,4.40
2018-03-29T21:31:10.417Z,4.30
2018-03-29T21:33:37.976Z,4.30
2018-03-29T21:36:05.521Z,4.20
2018-03-29T21:38:33.837Z,4.20
2018-03-29T21:41:01.357Z,4.10
2018-03-29T21:43:29.680Z,4.10
2018-03-29T21:45:57.201Z,4.00
2018-03-29T21:48:25.526Z,4.00
2018-03-29T21:50:53.062Z,4.00
2018-03-29T21:53:20.622Z,4.00
2018-03-29T21:55:48.150Z,3.90
2018-03-29T21:58:16.474Z,3.90
2018-03-29T22:00:43.989Z,3.80
2018-03-29T22:03:12.278Z,3.80
2018-03-29T22:05:40.589Z,3.80
2018-03-29T22:08:08.108Z,3.80
2018-03-29T22:10:36.454Z,3.80
2018-03-29T22:13:03.977Z,3.70
2018-03-29T22:15:31.530Z,3.70
2018-03-29T22:17:59.053Z,3.70
2018-03-29T22:20:26.596Z,3.60
2018-03-29T22:22:54.122Z,3.60
2018-03-29T22:25:21.667Z,3.50
2018-03-29T22:27:49.195Z,3.50
2018-03-29T22:30:16.746Z,3.40
2018-03-29T22:32:44.269Z,3.40
2018-03-29T22:35:11.811Z,3.30
2018-03-29T22:37:39.343Z,3.30
2018-03-29T22:40:07.664Z,3.20
2018-03-29T22:42:35.189Z,3.20
2018-03-29T22:45:03.511Z,3.20
2018-03-29T22:47:31.042Z,3.10
2018-03-29T22:49:58.593Z,3.10
2018-03-29T22:52:26.882Z,3.10
2018-03-29T22:54:54.434Z,3.00
2018-03-29T22:57:22.717Z,3.00
2018-03-29T22:59:50.262Z,3.00
2018-03-29T23:02:18.560Z,3.00
2018-03-29T23:04:46.082Z,2.90
2018-03-29T23:07:13.630Z,3.00
2018-03-29T23:09:41.158Z,2.90
2018-03-29T23:12:08.710Z,2.90
2018-03-29T23:14:36.233Z,2.90
2018-03-29T23:17:04.554Z,2.80
2018-03-29T23:19:32.090Z,2.80
2018-03-29T23:21:59.646Z,2.80
2018-03-29T23:24:27.166Z,2.80
2018-03-29T23:26:54.709Z,2.80
2018-03-29T23:29:22.238Z,2.70
2018-03-29T23:31:49.789Z,2.70
2018-03-29T23:34:17.314Z,2.70
2018-03-29T23:36:44.866Z,2.70
2018-03-29T23:39:12.395Z,2.60
2018-03-29T23:41:39.951Z,2.60
2018-03-29T23:44:07.478Z,2.60
2018-03-29T23:46:35.796Z,2.50
2018-03-29T23:49:03.328Z,2.50
2018-03-29T23:51:30.877Z,2.50
2018-03-29T23:53:59.165Z,2.40
2018-03-29T23:56:26.721Z,2.40
2018-03-29T23:58:55.015Z,2.40
